createdAt,value
2019-04-25T00:03:03.412Z,17.00
2019-04-25T00:08:08.240Z,17.00
2019-04-25T00:13:12.465Z,16.90
2019-04-25T00:18:16.353Z,16.90
2019-04-25T00:23:21.826Z,16.90
2019-04-25T00:28:25.707Z,16.80
2019-04-25T00:33:29.578Z,16.70
2019-04-25T00:38:33.458Z,16.60
2019-04-25T00:43:37.357Z,16.60
2019-04-25T00:48:42.404Z,16.40
2019-04-25T00:53:46.969Z,16.40
2019-04-25T00:58:53.136Z,16.40
2019-04-25T01:03:58.001Z,16.20
2019-04-25T01:09:02.173Z,16.20
2019-04-25T01:14:08.328Z,16.20
2019-04-25T01:19:13.417Z,16.10
2019-04-25T01:24:17.893Z,16.10
2019-04-25T01:29:23.397Z,16.00
2019-04-25T01:34:29.084Z,16.00
2019-04-25T01:39:40.455Z,16.10
2019-04-25T01:44:51.782Z,16.10
2019-04-25T01:49:56.598Z,16.10
2019-04-25T01:55:00.642Z,16.10
2019-04-25T02:00:06.435Z,16.00
2019-04-25T02:05:10.608Z,15.90
2019-04-25T02:10:14.574Z,15.90
2019-04-25T02:15:20.028Z,15.80
2019-04-25T02:20:23.941Z,15.80
2019-04-25T02:25:27.957Z,15.70
2019-04-25T02:30:31.882Z,15.70
2019-04-25T02:35:35.805Z,15.60
2019-04-25T02:40:39.726Z,15.60
2019-04-25T02:45:50.735Z,15.70
2019-04-25T02:51:07.895Z,15.70
2019-04-25T02:56:27.698Z,15.70
2019-04-25T03:01:22.844Z,15.60
2019-04-25T03:06:24.967Z,15.50
2019-04-25T03:11:29.517Z,15.50
2019-04-25T03:16:34.737Z,15.50
2019-04-25T03:21:40.407Z,15.30
2019-04-25T03:26:44.391Z,15.30
2019-04-25T03:31:48.361Z,15.30
2019-04-25T03:36:53.636Z,15.40
2019-04-25T03:41:57.798Z,15.50
2019-04-25T03:47:05.271Z,15.50
2019-04-25T03:52:07.975Z,15.40
2019-04-25T03:57:14.465Z,15.30
2019-04-25T04:02:17.670Z,15.20
2019-04-25T04:07:21.594Z,15.30
2019-04-25T04:12:25.494Z,15.40
2019-04-25T04:17:34.008Z,15.50
2019-04-25T04:22:43.762Z,15.50
2019-04-25T04:27:47.806Z,15.50
2019-04-25T04:32:51.733Z,15.60
2019-04-25T04:37:55.653Z,15.70
2019-04-25T04:42:59.566Z,15.80
2019-04-25T04:48:03.494Z,15.70
2019-04-25T04:53:07.415Z,15.60
2019-04-25T04:58:11.329Z,15.50
2019-04-25T05:03:16.929Z,15.60
2019-04-25T05:08:25.648Z,15.70
2019-04-25T05:13:29.607Z,15.80
2019-04-25T05:18:38.094Z,15.90
2019-04-25T05:23:38.957Z,16.00
2019-04-25T05:28:44.406Z,16.10
2019-04-25T05:33:48.516Z,16.20
2019-04-25T05:38:53.851Z,16.20
2019-04-25T05:43:57.880Z,16.30
2019-04-25T05:49:01.690Z,16.30
2019-04-25T05:54:05.577Z,16.50
2019-04-25T05:59:09.493Z,16.60
2019-04-25T06:04:13.907Z,16.70
2019-04-25T06:09:38.025Z,17.00
2019-04-25T06:14:43.306Z,17.20
2019-04-25T06:19:48.956Z,17.30
2019-04-25T06:24:54.413Z,17.40
2019-04-25T06:30:00.990Z,17.50
2019-04-25T06:35:06.663Z,17.60
2019-04-25T06:40:11.557Z,17.70
2019-04-25T06:45:34.477Z,17.80
2019-04-25T06:50:38.473Z,17.90
2019-04-25T06:55:43.404Z,17.90
2019-04-25T07:00:58.173Z,18.00
2019-04-25T07:05:53.629Z,18.10
2019-04-25T07:10:57.589Z,18.10
2019-04-25T07:16:03.049Z,18.20
2019-04-25T07:21:07.153Z,18.30
2019-04-25T07:26:13.536Z,18.30
2019-04-25T07:31:31.197Z,18.50
2019-04-25T07:36:36.165Z,18.60
2019-04-25T07:41:40.171Z,18.80
2019-04-25T07:46:44.109Z,19.10
2019-04-25T07:51:48.090Z,19.30
2019-04-25T07:56:54.807Z,19.70
2019-04-25T08:01:57.562Z,20.20
2019-04-25T08:07:01.541Z,20.70
2019-04-25T08:12:05.566Z,21.20
2019-04-25T08:17:14.501Z,21.60
2019-04-25T08:22:17.790Z,22.10
2019-04-25T08:27:23.403Z,22.30
2019-04-25T08:32:27.515Z,22.70
2019-04-25T08:37:31.760Z,23.20
2019-04-25T08:42:36.683Z,23.30
2019-04-25T08:47:41.843Z,23.40
2019-04-25T08:52:46.281Z,23.50
2019-04-25T08:57:57.754Z,23.70
2019-04-25T09:03:03.883Z,24.00
2019-04-25T09:08:08.940Z,24.20
2019-04-25T09:13:13.453Z,24.40
2019-04-25T09:18:17.613Z,24.60
2019-04-25T09:23:21.488Z,24.80
2019-04-25T09:28:25.381Z,25.10
2019-04-25T09:33:29.251Z,25.40
2019-04-25T09:38:34.797Z,25.30
2019-04-25T09:43:38.702Z,25.50
2019-04-25T09:48:46.897Z,25.60
2019-04-25T09:53:54.004Z,25.60
2019-04-25T09:59:00.760Z,25.60
2019-04-25T10:04:04.920Z,25.80
2019-04-25T10:09:10.392Z,26.00
2019-04-25T10:14:39.019Z,26.20
2019-04-25T10:19:43.497Z,26.30
2019-04-25T10:24:59.965Z,26.40
2019-04-25T10:29:56.540Z,26.40
2019-04-25T10:34:58.701Z,26.50
2019-04-25T10:40:04.235Z,26.60
2019-04-25T10:45:20.408Z,26.90
2019-04-25T10:50:15.718Z,27.10
2019-04-25T10:55:19.640Z,27.30
2019-04-25T11:00:28.585Z,27.40
2019-04-25T11:05:34.279Z,27.60
2019-04-25T11:10:38.390Z,27.50
2019-04-25T11:15:47.038Z,27.50
2019-04-25T11:20:51.271Z,27.50
2019-04-25T11:25:56.826Z,27.40
2019-04-25T11:31:00.957Z,27.40
2019-04-25T11:36:05.586Z,27.50
2019-04-25T11:41:11.166Z,27.60
2019-04-25T11:46:16.406Z,27.30
2019-04-25T11:51:23.854Z,27.00
2019-04-25T11:56:26.537Z,26.90
2019-04-25T12:01:31.281Z,27.00
2019-04-25T12:06:35.305Z,27.10
2019-04-25T12:11:39.341Z,27.10
2019-04-25T12:16:46.155Z,27.10
2019-04-25T12:21:49.032Z,27.10
2019-04-25T12:26:54.819Z,26.90
2019-04-25T12:31:58.730Z,26.80
2019-04-25T12:37:03.842Z,26.70
2019-04-25T12:42:08.124Z,26.70
2019-04-25T12:47:25.563Z,26.60
2019-04-25T12:52:29.594Z,26.50
2019-04-25T12:57:33.520Z,26.50
2019-04-25T13:02:37.650Z,26.40
2019-04-25T13:07:41.788Z,26.40
2019-04-25T13:12:45.915Z,26.40
2019-04-25T13:17:49.943Z,26.40
2019-04-25T13:22:53.976Z,26.40
2019-04-25T13:27:59.603Z,26.40
2019-04-25T13:33:05.312Z,26.40
2019-04-25T13:38:09.643Z,26.40
2019-04-25T13:43:14.085Z,26.50
2019-04-25T13:48:18.010Z,26.60
2019-04-25T13:53:23.310Z,26.60
2019-04-25T13:58:30.546Z,26.70
2019-04-25T14:03:34.047Z,26.70
2019-04-25T14:08:39.451Z,26.80
2019-04-25T14:13:43.356Z,26.70
2019-04-25T14:18:57.853Z,26.70
2019-04-25T14:24:01.986Z,26.70
2019-04-25T14:29:06.097Z,26.60
2019-04-25T14:34:10.043Z,26.50
2019-04-25T14:39:16.021Z,26.30
2019-04-25T14:44:19.946Z,26.10
2019-04-25T14:49:24.041Z,26.00
2019-04-25T14:54:30.580Z,25.80
2019-04-25T14:59:34.899Z,25.70
2019-04-25T15:04:38.826Z,25.60
2019-04-25T15:09:42.778Z,25.60
2019-04-25T15:14:53.031Z,25.50
2019-04-25T15:19:57.884Z,25.40
2019-04-25T15:25:01.931Z,25.40
2019-04-25T15:30:08.803Z,25.40
2019-04-25T15:35:14.369Z,25.40
2019-04-25T15:40:34.886Z,25.30
2019-04-25T15:45:43.067Z,25.20
2019-04-25T15:50:47.043Z,25.20
2019-04-25T15:55:50.966Z,25.20
2019-04-25T16:00:55.405Z,25.10
2019-04-25T16:05:59.437Z,25.10
2019-04-25T16:11:03.362Z,25.00
2019-04-25T16:16:07.698Z,24.90
2019-04-25T16:21:11.931Z,24.90
2019-04-25T16:26:15.860Z,24.90
2019-04-25T16:31:21.296Z,24.80
2019-04-25T16:36:27.245Z,24.80
2019-04-25T16:41:33.734Z,24.80
2019-04-25T16:46:40.297Z,24.70
2019-04-25T16:51:44.301Z,24.70
2019-04-25T16:56:48.327Z,24.60
2019-04-25T17:01:52.194Z,24.50
2019-04-25T17:06:56.090Z,24.40
2019-04-25T17:11:59.976Z,24.40
2019-04-25T17:17:11.150Z,24.30
2019-04-25T17:22:15.041Z,24.20
2019-04-25T17:27:19.642Z,24.20
2019-04-25T17:32:25.121Z,24.10
2019-04-25T17:37:31.029Z,24.10
2019-04-25T17:42:36.758Z,24.00
2019-04-25T17:47:51.672Z,23.90
2019-04-25T17:52:46.267Z,23.90
2019-04-25T17:57:50.186Z,23.70
2019-04-25T18:02:59.015Z,23.60
2019-04-25T18:07:59.719Z,23.50
2019-04-25T18:13:04.543Z,23.40
2019-04-25T18:18:15.861Z,23.40
2019-04-25T18:23:30.219Z,23.30
2019-04-25T18:28:41.768Z,23.20
2019-04-25T18:33:45.972Z,23.10
2019-04-25T18:39:03.448Z,23.00
2019-04-25T18:44:08.900Z,22.90
2019-04-25T18:49:12.824Z,22.80
2019-04-25T18:54:21.488Z,22.80
2019-04-25T18:59:29.811Z,22.70
2019-04-25T19:04:51.586Z,22.60
2019-04-25T19:09:55.600Z,22.40
2019-04-25T19:15:01.341Z,22.30
2019-04-25T19:20:06.359Z,22.30
2019-04-25T19:25:10.850Z,22.10
2019-04-25T19:30:16.291Z,22.10
2019-04-25T19:35:20.229Z,22.00
2019-04-25T19:40:25.845Z,22.00
2019-04-25T19:45:29.771Z,21.90
2019-04-25T19:50:33.697Z,21.70
2019-04-25T19:55:37.647Z,21.60
2019-04-25T20:00:43.246Z,21.50
2019-04-25T20:06:05.659Z,21.40
2019-04-25T20:11:17.358Z,21.40
2019-04-25T20:16:21.552Z,21.30
2019-04-25T20:21:25.451Z,21.20
2019-04-25T20:26:29.364Z,21.20
2019-04-25T20:31:33.275Z,21.20
2019-04-25T20:36:37.287Z,21.00
2019-04-25T20:41:41.239Z,21.00
2019-04-25T20:46:46.648Z,21.10
2019-04-25T20:51:50.685Z,21.10
2019-04-25T20:56:55.142Z,20.90
2019-04-25T21:01:59.363Z,20.70
2019-04-25T21:07:03.334Z,20.40
2019-04-25T21:12:07.777Z,20.20
2019-04-25T21:17:13.206Z,20.00
2019-04-25T21:22:17.090Z,20.00
2019-04-25T21:27:20.983Z,19.70
2019-04-25T21:32:25.084Z,19.60
2019-04-25T21:37:29.357Z,19.60
2019-04-25T21:42:35.111Z,19.50
2019-04-25T21:47:39.345Z,19.60
2019-04-25T21:52:43.559Z,19.50
2019-04-25T21:57:47.809Z,19.40
2019-04-25T22:02:51.932Z,19.40
2019-04-25T22:07:56.223Z,19.30
2019-04-25T22:13:11.403Z,19.20
2019-04-25T22:18:06.682Z,19.10
2019-04-25T22:23:10.811Z,18.90
2019-04-25T22:28:15.147Z,18.80
2019-04-25T22:33:20.741Z,18.70
2019-04-25T22:38:24.688Z,18.70
2019-04-25T22:43:30.216Z,18.90
2019-04-25T22:48:49.183Z,18.80
2019-04-25T22:53:53.104Z,18.70
2019-04-25T22:58:57.028Z,18.60
2019-04-25T23:04:08.519Z,18.50
2019-04-25T23:09:13.513Z,18.50
2019-04-25T23:14:17.518Z,18.50
2019-04-25T23:19:21.452Z,18.50
2019-04-25T23:24:27.316Z,18.50
2019-04-25T23:29:31.407Z,18.50
2019-04-25T23:34:35.284Z,18.60
2019-04-25T23:39:39.165Z,18.50
2019-04-25T23:44:43.049Z,18.50
2019-04-25T23:49:46.929Z,18.50
2019-04-25T23:54:51.134Z,18.40
2019-04-25T23:59:55.513Z,18.40
